Terminal Aerodrome Forecast
Issued by NWS Raleigh/Durham, NC

Home | Current Version | Previous Version | Text Only | Print | Product List | Glossary On
Versions: 1 2 3 4 5 6 7 8 9 10 11 12 13 14 15 16 17 18 19 20 21 22 23 24 25 26 27 28 29 30 31 32
000
FTUS42 KRAH 201727
TAFRDU
TAF
KRDU 201727Z 2018/2118 03005KT P6SM SCT008 OVC060
      TEMPO 2018/2021 5SM BR BKN025
     FM210300 04003KT P6SM BKN050
      TEMPO 2109/2112 1/2SM FG
     FM211400 04003KT P6SM OVC050=

USA.gov is the U.S. government's official web portal to all federal, state and local government web resources and services.